Time;durP1;ratioP1;P1;durP2;ratioP2;P2;SDS_P1;SDS_P2;PMS_P1;PMS_P2;Temp;Humidity;BMP_temperature;BMP_pressure;BME280_temperature;BME280_humidity;BME280_pressure;Samples;Min_cycle;Max_cycle;Signal;HPM_P1;HPM_P2
2023/05/04 00:00:18;;;;;;;2.43;2.23;;;13.20;88.90;;;13.38;nan;101164.94;5007479;28;20672;-66
2023/05/04 00:02:45;;;;;;;3.27;2.97;;;13.10;90.00;;;13.33;nan;101166.25;5008983;28;20648;-68
2023/05/04 00:05:13;;;;;;;3.73;2.80;;;13.00;90.50;;;13.29;nan;101163.00;4999399;28;20630;-66
2023/05/04 00:07:40;;;;;;;7.20;3.23;;;13.00;91.00;;;13.23;nan;101156.44;5001162;28;20672;-66
2023/05/04 00:10:08;;;;;;;2.47;2.37;;;12.90;91.50;;;13.17;nan;101156.06;5009559;28;20637;-66
2023/05/04 00:12:35;;;;;;;2.70;2.50;;;12.90;92.20;;;13.15;nan;101150.94;5011116;28;20732;-67
2023/05/04 00:15:02;;;;;;;3.03;2.57;;;12.80;92.90;;;13.10;nan;101146.97;5010023;28;20629;-65
2023/05/04 00:17:30;;;;;;;3.53;2.70;;;12.80;93.70;;;13.06;nan;101153.38;5010728;28;21046;-65
2023/05/04 00:19:57;;;;;;;4.63;2.67;;;12.70;94.50;;;12.99;nan;101149.53;5010778;28;20735;-67
2023/05/04 00:22:24;;;;;;;3.13;2.40;;;12.70;95.50;;;12.92;nan;101148.31;5005249;28;21043;-66
2023/05/04 00:24:51;;;;;;;2.53;2.33;;;12.60;96.40;;;12.88;nan;101149.47;5010429;28;20629;-67
2023/05/04 00:27:18;;;;;;;2.43;2.27;;;12.50;97.10;;;12.89;nan;101143.28;5009843;28;21068;-67
2023/05/04 00:29:45;;;;;;;2.20;2.10;;;12.60;97.70;;;12.88;nan;101144.25;5010238;28;20642;-68
2023/05/04 00:32:12;;;;;;;2.10;2.00;;;12.60;98.40;;;12.85;nan;101139.22;5009226;28;20633;-66
2023/05/04 00:34:39;;;;;;;2.90;2.47;;;12.60;99.00;;;12.80;nan;101144.78;5006856;28;20634;-68
2023/05/04 00:37:06;;;;;;;2.20;2.00;;;12.50;99.60;;;12.77;nan;101138.94;5009178;28;21373;-67
2023/05/04 00:39:36;;;;;;;2.27;2.07;;;12.50;99.90;;;12.73;nan;101134.88;5004283;28;21447;-65
2023/05/04 00:42:03;;;;;;;2.13;1.83;;;12.40;99.90;;;12.71;nan;101134.16;5008058;28;20634;-69
2023/05/04 00:44:30;;;;;;;2.00;1.90;;;12.40;99.90;;;12.66;nan;101134.50;5006562;28;21475;-66
2023/05/04 00:46:57;;;;;;;2.90;2.23;;;12.40;99.90;;;12.64;nan;101133.78;5006072;28;20698;-69
2023/05/04 00:49:25;;;;;;;2.17;2.07;;;12.30;99.90;;;12.60;nan;101128.88;5008584;28;20641;-66
2023/05/04 00:51:54;;;;;;;2.33;2.20;;;12.30;99.90;;;12.55;nan;101131.81;5010257;28;20645;-66
2023/05/04 00:54:22;;;;;;;2.70;2.50;;;12.30;99.90;;;12.48;nan;101129.75;4999944;28;20632;-66
2023/05/04 00:56:49;;;;;;;3.63;2.50;;;12.20;99.90;;;12.40;nan;101128.53;5003382;28;20672;-65
2023/05/04 00:59:16;;;;;;;2.80;2.57;;;11.40;99.90;;;12.33;nan;101129.91;5008046;28;20670;-66
2023/05/04 01:01:43;;;;;;;6.37;4.10;;;12.10;99.90;;;12.32;nan;101130.84;5007206;28;21016;-67
2023/05/04 01:04:10;;;;;;;10.70;7.00;;;12.00;99.90;;;12.32;nan;101128.25;5012600;28;20636;-67
2023/05/04 01:06:40;;;;;;;5.10;3.60;;;12.00;99.90;;;12.32;nan;101128.25;5011191;28;20661;-70
2023/05/04 01:09:16;;;;;;;2.90;1.83;;;12.00;99.90;;;12.30;nan;101124.06;5010179;28;20642;-70
2023/05/04 01:12:01;;;;;;;2.70;2.23;;;12.00;99.90;;;12.30;nan;101124.91;5011395;28;20639;-67
2023/05/04 01:14:30;;;;;;;2.70;2.40;;;12.00;99.90;;;12.28;nan;101123.31;5011394;28;20645;-71
2023/05/04 01:16:58;;;;;;;2.00;1.83;;;12.00;99.90;;;12.26;nan;101112.97;5011496;28;20664;-67
2023/05/04 01:19:28;;;;;;;2.23;1.93;;;12.00;99.90;;;12.24;nan;101114.88;5011044;28;21302;-67
2023/05/04 01:21:55;;;;;;;1.30;1.27;;;12.00;99.90;;;12.25;nan;101119.16;5008068;28;20674;-67
2023/05/04 01:24:24;;;;;;;1.73;1.50;;;12.00;99.90;;;12.21;nan;101122.94;5012561;28;20614;-66
2023/05/04 01:27:08;;;;;;;1.60;1.53;;;12.00;99.90;;;12.19;nan;101116.97;5012173;28;20735;-66
2023/05/04 01:29:51;;;;;;;2.33;2.13;;;11.90;99.90;;;12.16;nan;101119.78;4992980;28;20690;-67
2023/05/04 01:32:20;;;;;;;3.73;2.07;;;11.90;99.90;;;12.10;nan;101120.22;4992297;28;20688;-66
2023/05/04 01:34:47;;;;;;;2.13;1.70;;;11.80;99.90;;;12.03;nan;101124.22;5002206;28;20634;-66
2023/05/04 01:37:14;;;;;;;2.07;1.90;;;11.80;99.90;;;11.97;nan;101122.03;5012064;28;20665;-66
2023/05/04 01:39:41;;;;;;;2.10;2.00;;;11.70;99.90;;;11.93;nan;101128.41;5010442;28;20657;-66
2023/05/04 01:42:08;;;;;;;2.40;2.20;;;11.70;99.90;;;11.88;nan;101120.06;5018411;28;20630;-69
2023/05/04 01:44:35;;;;;;;3.30;2.40;;;11.60;99.90;;;11.81;nan;101124.06;4996383;28;20650;-66
2023/05/04 01:47:02;;;;;;;2.97;2.40;;;11.60;99.90;;;11.81;nan;101123.19;5001535;28;20668;-69
2023/05/04 01:49:29;;;;;;;2.10;2.00;;;11.50;99.90;;;11.75;nan;101128.88;5011383;28;20633;-64
2023/05/04 01:51:56;;;;;;;2.90;2.60;;;11.50;99.90;;;11.71;nan;101127.41;5011697;28;20629;-67
2023/05/04 01:54:23;;;;;;;2.63;2.47;;;11.40;99.90;;;11.59;nan;101121.19;5010202;28;20632;-65
2023/05/04 01:56:50;;;;;;;2.00;1.90;;;11.30;99.90;;;11.54;nan;101128.53;5011786;28;20660;-64
2023/05/04 01:59:17;;;;;;;2.30;2.03;;;11.30;99.90;;;11.53;nan;101125.06;5010595;28;21270;-65
2023/05/04 02:01:44;;;;;;;2.50;2.30;;;11.30;99.90;;;11.55;nan;101119.72;5011882;28;20633;-68
2023/05/04 02:04:11;;;;;;;2.30;1.97;;;11.30;99.90;;;11.57;nan;101125.69;5009082;28;20621;-65
2023/05/04 02:06:39;;;;;;;2.40;2.20;;;11.30;99.90;;;11.58;nan;101115.13;5001841;28;21264;-66
2023/05/04 02:09:06;;;;;;;2.53;2.07;;;11.30;99.90;;;11.59;nan;101121.19;4997874;28;21195;-66
2023/05/04 02:11:33;;;;;;;2.70;1.60;;;11.30;99.90;;;11.57;nan;101120.47;5011690;28;20996;-69
2023/05/04 02:14:00;;;;;;;2.17;1.97;;;11.30;99.90;;;11.56;nan;101119.63;5012501;28;21193;-66
2023/05/04 02:16:27;;;;;;;1.97;1.80;;;11.30;99.90;;;11.53;nan;101119.00;5011607;28;20684;-65
2023/05/04 02:18:54;;;;;;;2.30;2.10;;;11.30;99.90;;;11.53;nan;101112.00;5011337;28;20977;-66
2023/05/04 02:21:21;;;;;;;1.73;1.63;;;11.20;99.90;;;11.50;nan;101117.44;5010378;28;20635;-69
2023/05/04 02:23:48;;;;;;;3.20;1.83;;;11.20;99.90;;;11.51;nan;101113.03;5005922;28;20715;-66
2023/05/04 02:26:15;;;;;;;3.20;2.90;;;11.20;99.90;;;11.47;nan;101111.59;4993764;28;20696;-65
2023/05/04 02:28:42;;;;;;;2.03;1.93;;;11.20;99.90;;;11.47;nan;101114.19;5010743;28;20633;-66
2023/05/04 02:31:09;;;;;;;2.47;1.80;;;11.20;99.90;;;11.47;nan;101116.81;5010984;28;20687;-66
2023/05/04 02:33:36;;;;;;;2.80;2.30;;;11.20;99.90;;;11.48;nan;101116.69;4998675;28;20640;-69
2023/05/04 02:36:03;;;;;;;1.90;1.80;;;11.20;99.90;;;11.47;nan;101114.19;5009922;28;21200;-67
2023/05/04 02:38:30;;;;;;;4.23;2.20;;;11.20;99.90;;;11.44;nan;101104.78;5009113;28;20648;-65
2023/05/04 02:40:57;;;;;;;2.00;1.90;;;11.20;99.90;;;11.35;nan;101104.59;5010393;28;21058;-66
2023/05/04 02:43:24;;;;;;;1.97;1.87;;;11.10;99.90;;;11.32;nan;101110.00;5010334;28;21232;-67
2023/05/04 02:45:51;;;;;;;2.37;2.17;;;11.10;99.90;;;11.23;nan;101118.44;5002684;28;21244;-68
2023/05/04 02:48:18;;;;;;;2.27;2.17;;;11.00;99.90;;;11.20;nan;101101.19;5008920;28;21018;-66
2023/05/04 02:50:45;;;;;;;2.00;1.90;;;11.00;99.90;;;11.18;nan;101097.03;5000228;28;20625;-66
2023/05/04 02:53:12;;;;;;;1.93;1.83;;;10.90;99.90;;;11.14;nan;101103.41;4998649;28;20918;-70
2023/05/04 02:55:39;;;;;;;2.40;1.50;;;10.90;99.90;;;11.16;nan;101101.53;5003259;28;20644;-66
2023/05/04 02:58:06;;;;;;;1.70;1.60;;;10.90;99.90;;;11.16;nan;101104.16;5052713;23;21099;-66
2023/05/04 03:00:33;;;;;;;2.20;2.00;;;10.90;99.90;;;11.10;nan;101102.75;5030009;28;20729;-66
2023/05/04 03:03:00;;;;;;;2.10;1.77;;;10.90;99.90;;;11.10;nan;101099.31;5018761;28;20675;-68
2023/05/04 03:05:27;;;;;;;1.60;1.50;;;10.80;99.90;;;11.10;nan;101099.31;5015471;28;20628;-66
2023/05/04 03:07:55;;;;;;;2.90;1.60;;;10.80;99.90;;;11.09;nan;101092.44;5020002;28;21122;-66
2023/05/04 03:10:22;;;;;;;2.40;2.20;;;10.80;99.90;;;11.06;nan;101088.25;5029687;28;21212;-66
2023/05/04 03:12:49;;;;;;;1.90;1.80;;;10.80;99.90;;;11.06;nan;101092.63;5019407;28;20637;-66
2023/05/04 03:15:16;;;;;;;5.70;2.10;;;10.80;99.90;;;11.06;nan;101090.00;5010847;28;20614;-64
2023/05/04 03:17:43;;;;;;;2.20;2.10;;;10.80;99.90;;;11.03;nan;101092.84;5021244;28;21015;-66
2023/05/04 03:20:12;;;;;;;3.87;2.20;;;10.80;99.90;;;11.01;nan;101092.09;5030175;28;20657;-66
2023/05/04 03:22:39;;;;;;;1.97;1.87;;;10.80;99.90;;;11.04;nan;101086.66;5027939;28;20628;-67
2023/05/04 03:25:07;;;;;;;2.40;1.90;;;10.80;99.90;;;11.02;nan;101088.53;5012101;28;20636;-66
2023/05/04 03:27:33;;;;;;;3.50;2.43;;;10.80;99.90;;;10.98;nan;101084.47;5009989;28;21018;-66
2023/05/04 03:30:00;;;;;;;2.23;1.93;;;10.70;99.90;;;10.97;nan;101085.41;5010774;28;20634;-65
2023/05/04 03:32:28;;;;;;;2.30;2.10;;;10.70;99.90;;;10.94;nan;101082.03;5009954;28;20629;-67
2023/05/04 03:34:55;;;;;;;2.03;1.90;;;10.70;99.90;;;10.92;nan;101083.94;5018657;28;20641;-65
2023/05/04 03:37:22;;;;;;;2.60;2.40;;;10.70;99.90;;;10.94;nan;101073.41;5023472;28;20661;-67
2023/05/04 03:39:49;;;;;;;2.40;2.00;;;10.70;99.90;;;10.93;nan;101072.56;5029494;28;21267;-68
2023/05/04 03:42:16;;;;;;;2.33;2.10;;;10.70;99.90;;;10.89;nan;101075.47;5024265;28;20696;-68
2023/05/04 03:44:43;;;;;;;2.43;2.20;;;10.60;99.90;;;10.87;nan;101072.97;5023122;28;20625;-69
2023/05/04 03:47:10;;;;;;;2.33;2.17;;;10.60;99.90;;;10.87;nan;101069.50;5026396;28;21590;-66
2023/05/04 03:49:37;;;;;;;2.33;2.13;;;10.60;99.90;;;10.90;nan;101069.31;5010624;28;20613;-67
2023/05/04 03:52:04;;;;;;;2.03;1.93;;;10.70;99.90;;;10.92;nan;101076.09;5015000;28;20640;-67
2023/05/04 03:54:31;;;;;;;4.57;2.23;;;10.70;99.90;;;10.93;nan;101072.56;5026473;28;20617;-67
2023/05/04 03:57:03;;;;;;;2.30;2.10;;;10.70;99.90;;;10.93;nan;101074.31;5027721;28;20667;-66
2023/05/04 03:59:30;;;;;;;2.60;2.40;;;10.70;99.90;;;10.94;nan;101071.59;5028866;28;21036;-67
2023/05/04 04:02:00;;;;;;;2.17;2.07;;;10.70;99.90;;;10.91;nan;101065.75;5023004;28;20629;-67
2023/05/04 04:04:28;;;;;;;3.30;2.30;;;10.70;99.90;;;10.89;nan;101071.09;5013673;28;20625;-66
2023/05/04 04:06:55;;;;;;;4.30;2.63;;;10.70;99.90;;;10.86;nan;101075.69;5023412;28;21251;-68
2023/05/04 04:09:22;;;;;;;2.70;2.40;;;10.70;99.90;;;10.83;nan;101079.34;5022108;28;20633;-69
2023/05/04 04:11:51;;;;;;;1.93;1.80;;;10.60;99.90;;;10.82;nan;101072.41;5026890;28;20643;-68
2023/05/04 04:14:20;;;;;;;2.30;2.00;;;10.60;99.90;;;10.83;nan;101087.16;5033267;28;20697;-67
2023/05/04 04:16:47;;;;;;;2.20;2.10;;;10.60;99.90;;;10.85;nan;101080.06;5021511;28;20653;-68
2023/05/04 04:19:14;;;;;;;2.60;2.30;;;10.60;99.90;;;10.87;nan;101085.19;5019152;28;20636;-67
2023/05/04 04:21:41;;;;;;;2.53;2.10;;;10.70;99.90;;;10.88;nan;101082.47;5028397;28;20719;-67
2023/05/04 04:24:10;;;;;;;2.03;1.87;;;10.60;99.90;;;10.87;nan;101082.56;5017483;28;20625;-68
2023/05/04 04:26:37;;;;;;;4.07;2.43;;;10.60;99.90;;;10.89;nan;101080.69;5017989;28;20779;-67
2023/05/04 04:29:04;;;;;;;2.10;2.00;;;10.60;99.90;;;10.92;nan;101091.75;5030783;28;20628;-68
2023/05/04 04:31:32;;;;;;;2.47;2.27;;;10.70;99.90;;;10.94;nan;101095.09;5012211;28;20639;-67
2023/05/04 04:33:59;;;;;;;2.73;2.20;;;10.70;99.90;;;10.96;nan;101094.19;5033242;28;20662;-67
2023/05/04 04:36:26;;;;;;;3.03;2.73;;;10.70;99.90;;;10.96;nan;101087.19;5020153;28;20640;-67
2023/05/04 04:38:53;;;;;;;2.13;1.97;;;10.80;99.90;;;10.99;nan;101094.00;5042961;28;20636;-68
2023/05/04 04:41:20;;;;;;;5.57;3.30;;;10.80;99.90;;;11.00;nan;101098.25;5027444;28;20664;-68
2023/05/04 04:43:47;;;;;;;5.40;2.70;;;10.80;99.90;;;10.98;nan;101100.97;5022815;28;20629;-68
2023/05/04 04:46:14;;;;;;;2.40;2.27;;;10.80;99.90;;;11.06;nan;101103.91;5033021;28;20616;-67
2023/05/04 04:48:41;;;;;;;2.23;2.13;;;10.80;99.90;;;11.12;nan;101098.28;5016238;28;20636;-67
2023/05/04 04:51:11;;;;;;;2.73;2.53;;;10.90;99.90;;;11.21;nan;101110.72;5033007;28;20635;-67
2023/05/04 04:53:38;;;;;;;2.23;2.00;;;11.00;99.90;;;11.32;nan;101108.25;5021239;28;20660;-67
2023/05/04 04:56:08;;;;;;;1.93;1.83;;;11.00;99.90;;;11.43;nan;101107.50;5019142;28;20636;-69
2023/05/04 04:58:35;;;;;;;3.20;2.37;;;11.20;99.90;;;11.52;nan;101115.53;5029212;28;20672;-67
2023/05/04 05:01:03;;;;;;;2.90;2.27;;;11.30;99.90;;;11.66;nan;101112.00;5025175;28;20674;-68
2023/05/04 05:03:31;;;;;;;3.47;2.37;;;11.40;99.90;;;11.74;nan;101107.09;5021707;28;21060;-68
2023/05/04 05:06:00;;;;;;;3.10;2.50;;;11.50;99.90;;;11.87;nan;101109.69;5030552;28;20624;-66
2023/05/04 05:08:27;;;;;;;2.37;2.20;;;11.60;99.90;;;12.01;nan;101114.81;5031343;28;20669;-69
2023/05/04 05:10:55;;;;;;;2.67;2.43;;;11.70;99.90;;;12.15;nan;101107.66;5015962;28;20635;-68
2023/05/04 05:13:22;;;;;;;2.00;1.90;;;11.80;99.90;;;12.27;nan;101109.41;5025704;28;21007;-66
2023/05/04 05:15:49;;;;;;;2.60;2.40;;;12.00;99.90;;;12.36;nan;101111.38;5032668;28;20620;-67
2023/05/04 05:18:15;;;;;;;5.20;2.50;;;12.10;99.90;;;12.39;nan;101118.97;5025333;28;20657;-68
2023/05/04 05:20:43;;;;;;;2.27;2.07;;;12.10;99.90;;;12.43;nan;101120.47;5030839;28;20660;-68
2023/05/04 05:23:10;;;;;;;2.63;2.40;;;12.20;99.90;;;12.43;nan;101111.78;5030730;28;20609;-66
2023/05/04 05:25:37;;;;;;;2.80;2.40;;;12.20;99.90;;;12.53;nan;101109.31;5032864;28;20624;-68
2023/05/04 05:28:04;;;;;;;2.10;2.00;;;12.30;99.90;;;12.69;nan;101113.31;5020647;28;20661;-67
2023/05/04 05:30:31;;;;;;;2.20;2.00;;;12.40;99.90;;;12.87;nan;101114.59;5027805;28;20694;-68
2023/05/04 05:32:58;;;;;;;2.10;2.00;;;12.60;99.90;;;13.12;nan;101129.34;5026822;28;20699;-64
2023/05/04 05:35:25;;;;;;;2.20;2.10;;;12.80;99.90;;;13.43;nan;101131.34;5010511;28;20633;-68
2023/05/04 05:37:53;;;;;;;2.47;2.27;;;13.10;99.90;;;13.74;nan;101129.81;5015888;28;20665;-68
2023/05/04 05:40:21;;;;;;;2.93;2.50;;;13.40;99.90;;;14.00;nan;101121.63;5015360;28;20724;-68
2023/05/04 05:42:48;;;;;;;2.50;2.33;;;13.70;99.90;;;14.25;nan;101128.38;5029181;28;21042;-68
2023/05/04 05:45:15;;;;;;;2.10;1.97;;;13.90;99.90;;;14.56;nan;101121.56;5030185;28;20637;-66
2023/05/04 05:47:42;;;;;;;2.60;2.40;;;14.10;99.90;;;14.94;nan;101115.78;5017862;28;20665;-67
2023/05/04 05:50:11;;;;;;;2.67;2.47;;;14.60;99.90;;;15.25;nan;101123.63;5020799;28;20989;-66
2023/05/04 05:52:38;;;;;;;2.50;2.30;;;14.90;99.90;;;15.51;nan;101132.84;5022110;28;20640;-68
2023/05/04 05:55:05;;;;;;;2.33;2.13;;;15.20;99.90;;;15.85;nan;101125.53;5021297;28;21204;-66
2023/05/04 05:57:32;;;;;;;6.93;3.00;;;15.50;99.90;;;16.27;nan;101123.59;5023849;28;20759;-68
2023/05/04 05:59:59;;;;;;;3.00;2.70;;;15.90;99.90;;;16.79;nan;101117.19;5030863;28;20686;-66
2023/05/04 06:02:26;;;;;;;2.20;2.10;;;16.40;99.90;;;17.25;nan;101129.66;5028151;28;20669;-66
2023/05/04 06:04:53;;;;;;;2.57;2.47;;;16.80;99.90;;;17.72;nan;101123.44;5028923;28;20629;-67
2023/05/04 06:07:20;;;;;;;3.20;2.90;;;17.30;99.90;;;18.21;nan;101123.09;5028702;28;20650;-66
2023/05/04 06:09:47;;;;;;;3.07;2.87;;;17.80;99.30;;;18.58;nan;101120.41;5015248;28;21473;-66
2023/05/04 06:12:16;;;;;;;2.73;2.53;;;18.20;98.40;;;18.85;nan;101122.97;5022033;28;21475;-67
2023/05/04 06:14:43;;;;;;;2.63;2.43;;;18.50;97.00;;;18.91;nan;101117.06;5030072;28;20698;-66
2023/05/04 06:17:10;;;;;;;3.17;2.90;;;18.60;95.70;;;18.94;nan;101115.94;5029581;28;20722;-66
2023/05/04 06:19:37;;;;;;;3.23;2.60;;;18.60;95.30;;;19.27;nan;101117.88;5029190;28;20811;-67
2023/05/04 06:22:04;;;;;;;3.33;2.70;;;18.90;95.10;;;19.71;nan;101119.53;5029845;28;20771;-66
2023/05/04 06:24:32;;;;;;;2.07;1.93;;;19.30;94.20;;;20.23;nan;101114.94;5029437;28;20699;-67
2023/05/04 06:26:59;;;;;;;3.00;2.70;;;19.90;93.00;;;20.76;nan;101119.91;5028754;28;20667;-68
2023/05/04 06:29:26;;;;;;;2.50;2.40;;;20.40;92.10;;;21.47;nan;101115.59;5010950;28;20637;-68
2023/05/04 06:31:53;;;;;;;3.60;3.30;;;21.10;90.80;;;22.18;nan;101118.22;5031249;28;20644;-65
2023/05/04 06:34:20;;;;;;;3.47;2.70;;;21.80;87.80;;;23.04;nan;101113.50;5020048;28;20637;-66
2023/05/04 06:36:48;;;;;;;2.40;2.30;;;22.50;85.00;;;23.80;nan;101115.13;5020807;28;20660;-68
2023/05/04 06:39:15;;;;;;;3.03;2.80;;;23.40;80.70;;;23.97;nan;101116.59;5014424;28;20668;-68
2023/05/04 06:41:42;;;;;;;3.67;3.37;;;23.70;77.40;;;24.10;nan;101122.13;5025073;28;20668;-68
2023/05/04 06:44:09;;;;;;;3.90;3.53;;;23.80;76.10;;;24.41;nan;101112.03;5022769;28;20639;-68
2023/05/04 06:46:36;;;;;;;3.60;3.30;;;24.10;74.30;;;24.41;nan;101119.19;5013945;28;20688;-68
2023/05/04 06:49:03;;;;;;;2.00;1.77;;;24.10;72.90;;;24.68;nan;101124.63;5019287;28;20681;-68
2023/05/04 06:51:31;;;;;;;3.50;3.20;;;24.30;70.60;;;24.94;nan;101118.75;5025797;28;20632;-68
2023/05/04 06:53:59;;;;;;;3.50;3.17;;;24.70;69.50;;;25.44;nan;101120.41;5017316;28;21070;-68
2023/05/04 06:56:26;;;;;;;3.20;3.00;;;25.10;68.60;;;25.92;nan;101119.47;5026840;28;20637;-68
2023/05/04 06:58:53;;;;;;;4.27;3.87;;;25.50;66.80;;;26.33;nan;101113.28;5025629;28;20644;-68
2023/05/04 07:01:20;;;;;;;4.20;3.80;;;25.90;65.50;;;27.03;nan;101120.84;5025397;28;20665;-66
2023/05/04 07:03:47;;;;;;;4.00;3.60;;;26.50;64.40;;;27.62;nan;101122.50;5021040;28;21235;-67
2023/05/04 07:06:14;;;;;;;4.07;3.63;;;27.00;63.50;;;28.03;nan;101124.88;5030294;28;21236;-68
2023/05/04 07:08:41;;;;;;;5.17;4.77;;;27.50;62.10;;;28.35;nan;101129.28;5012435;28;21250;-68
2023/05/04 07:11:09;;;;;;;4.77;3.30;;;27.90;60.60;;;28.65;nan;101118.81;5025292;28;20639;-69
2023/05/04 07:13:37;;;;;;;4.30;3.90;;;28.20;59.50;;;28.97;nan;101116.94;5026662;28;20635;-68
2023/05/04 07:16:07;;;;;;;4.00;3.63;;;28.60;58.80;;;29.12;nan;101120.94;5029899;28;20633;-69
2023/05/04 07:18:35;;;;;;;3.93;3.63;;;28.70;58.10;;;29.63;nan;101117.19;5023361;28;20660;-68
2023/05/04 07:21:02;;;;;;;3.23;3.00;;;29.10;57.50;;;30.09;nan;101108.63;5030020;28;20660;-68
2023/05/04 07:23:48;;;;;;;3.37;3.17;;;29.60;56.90;;;30.45;nan;101111.28;5029379;28;20615;-70
2023/05/04 07:26:15;;;;;;;3.80;3.50;;;30.20;55.40;;;30.56;nan;101100.53;5030773;28;20608;-66
2023/05/04 07:28:42;;;;;;;4.10;3.80;;;30.70;53.60;;;30.91;nan;101102.50;5030013;28;20623;-67
2023/05/04 07:31:11;;;;;;;4.30;3.60;;;30.80;54.00;;;30.95;nan;101103.69;5029795;28;20996;-67
2023/05/04 07:33:39;;;;;;;5.10;4.60;;;31.00;53.60;;;31.20;nan;101107.03;5014065;28;20629;-67
2023/05/04 07:36:06;;;;;;;3.77;3.47;;;31.20;53.30;;;31.46;nan;101108.41;5022117;28;20633;-67
2023/05/04 07:38:33;;;;;;;3.43;3.23;;;31.40;52.70;;;31.43;nan;101109.75;5023562;28;20999;-67
2023/05/04 07:41:00;;;;;;;4.60;4.20;;;31.50;52.20;;;31.33;nan;101099.50;5045075;28;20680;-67
2023/05/04 07:43:27;;;;;;;3.57;3.30;;;31.50;52.20;;;31.53;nan;101101.03;5027327;28;20624;-67
2023/05/04 07:45:54;;;;;;;5.30;4.60;;;31.60;51.90;;;31.81;nan;101095.72;5028859;28;20628;-67
2023/05/04 07:48:21;;;;;;;4.70;4.30;;;31.90;51.60;;;32.13;nan;101084.28;5021752;28;20652;-67
2023/05/04 07:50:51;;;;;;;4.97;4.57;;;32.40;50.80;;;32.57;nan;101081.84;5022675;28;21209;-67
2023/05/04 07:53:19;;;;;;;4.63;4.23;;;32.70;50.30;;;32.94;nan;101091.16;5018452;28;21182;-68
2023/05/04 07:55:47;;;;;;;3.40;3.20;;;33.10;50.10;;;33.59;nan;101089.47;5015349;28;20644;-67
2023/05/04 07:58:15;;;;;;;3.60;3.40;;;33.70;49.20;;;33.52;nan;101094.22;5031101;28;20706;-68
2023/05/04 08:00:42;;;;;;;3.20;3.00;;;33.70;49.00;;;33.48;nan;101084.94;5014674;28;20641;-69
2023/05/04 08:03:09;;;;;;;4.50;4.20;;;33.90;48.30;;;33.65;nan;101081.41;5024163;28;21273;-65
2023/05/04 08:05:36;;;;;;;3.47;3.20;;;34.00;48.40;;;33.22;nan;101079.44;5028150;28;21044;-67
2023/05/04 08:08:03;;;;;;;4.37;4.07;;;33.90;48.40;;;33.85;nan;101081.66;5027601;28;20657;-67
2023/05/04 08:10:30;;;;;;;3.60;3.30;;;34.10;49.00;;;34.48;nan;101075.63;5018536;28;20734;-66
2023/05/04 08:12:57;;;;;;;4.40;4.00;;;34.70;47.90;;;34.43;nan;101068.25;5032683;28;21214;-67
2023/05/04 08:15:24;;;;;;;4.70;4.30;;;35.00;47.30;;;34.43;nan;101073.66;5029852;28;20849;-67
2023/05/04 08:17:51;;;;;;;5.20;4.70;;;35.00;46.60;;;34.88;nan;101065.97;5024951;28;20661;-66
2023/05/04 08:20:18;;;;;;;4.90;4.40;;;35.30;46.40;;;35.31;nan;101058.69;5022351;28;20632;-67
2023/05/04 08:22:46;;;;;;;4.10;3.73;;;35.70;46.10;;;35.52;nan;101060.44;5027333;28;20669;-67
2023/05/04 08:25:13;;;;;;;4.07;3.77;;;35.90;45.90;;;35.48;nan;101062.06;5032494;28;21051;-67
2023/05/04 08:27:40;;;;;;;3.73;3.17;;;35.90;45.40;;;35.10;nan;101053.13;5013986;28;20652;-69
2023/05/04 08:30:08;;;;;;;5.43;3.10;;;35.70;45.70;;;34.81;nan;101045.56;5017868;28;20689;-67
2023/05/04 08:32:35;;;;;;;6.23;5.00;;;35.40;45.40;;;35.16;nan;101045.84;5030035;28;20628;-67
2023/05/04 08:35:02;;;;;;;3.73;3.30;;;35.50;45.60;;;35.59;nan;101053.69;5029074;28;20640;-67
2023/05/04 08:37:29;;;;;;;3.10;2.90;;;35.80;45.30;;;35.20;nan;101035.28;5027967;28;20648;-67
2023/05/04 08:39:56;;;;;;;5.13;3.83;;;35.70;45.20;;;35.26;nan;101036.94;5030041;28;21060;-67
2023/05/04 08:42:31;;;;;;;4.03;3.77;;;35.60;45.40;;;35.29;nan;101028.28;5013997;28;20661;-67
2023/05/04 08:44:58;;;;;;;4.20;3.90;;;35.70;45.10;;;35.31;nan;101032.34;5011796;28;20625;-68
2023/05/04 08:47:27;;;;;;;4.30;3.90;;;35.80;44.40;;;35.75;nan;101035.56;5023964;28;20660;-66
2023/05/04 08:49:55;;;;;;;3.70;3.50;;;36.10;44.60;;;36.47;nan;101032.75;5029862;28;20640;-67
2023/05/04 08:52:24;;;;;;;3.80;3.50;;;36.60;44.50;;;36.78;nan;101045.25;5031360;28;20636;-68
2023/05/04 08:54:55;;;;;;;5.10;4.70;;;37.20;43.70;;;36.26;nan;101041.94;5021246;28;20637;-67
2023/05/04 08:57:24;;;;;;;4.87;4.33;;;36.70;43.60;;;36.35;nan;101032.19;5039592;22;20691;-67
2023/05/04 08:59:53;;;;;;;4.40;4.10;;;36.50;43.90;;;36.28;nan;101027.00;5015724;28;20698;-66
2023/05/04 09:02:22;;;;;;;5.77;5.17;;;36.60;43.60;;;36.06;nan;101034.56;5029075;28;20673;-66
2023/05/04 09:04:54;;;;;;;4.67;4.33;;;36.20;43.40;;;35.91;nan;101020.94;5032259;28;20640;-66
2023/05/04 09:07:21;;;;;;;4.03;3.63;;;36.20;43.70;;;35.98;nan;101018.81;5025093;28;20659;-68
2023/05/04 09:09:50;;;;;;;3.50;3.30;;;36.30;42.80;;;35.75;nan;101017.38;5013119;28;20621;-67
2023/05/04 09:12:18;;;;;;;4.30;4.00;;;36.00;43.50;;;36.07;nan;101014.50;5025682;28;20691;-66
2023/05/04 09:14:45;;;;;;;4.93;4.53;;;36.20;43.30;;;36.66;nan;101020.25;5002125;28;20634;-69
2023/05/04 09:17:27;;;;;;;5.13;4.83;;;36.70;43.00;;;36.75;nan;101015.06;5011057;28;20661;-67
2023/05/04 09:20:02;;;;;;;4.27;3.87;;;37.00;42.50;;;36.05;nan;101005.81;5002285;28;20641;-67
2023/05/04 09:22:30;;;;;;;4.63;4.23;;;36.50;42.70;;;36.33;nan;101007.97;5004837;28;20664;-67
2023/05/04 09:25:11;;;;;;;4.37;4.07;;;36.50;42.80;;;35.61;nan;101007.25;4995258;28;20622;-67
2023/05/04 09:27:40;;;;;;;4.90;4.50;;;36.10;42.50;;;35.78;nan;100997.00;4993571;28;20679;-67
2023/05/04 09:30:08;;;;;;;4.17;3.90;;;35.80;42.70;;;34.51;nan;100989.22;4996489;28;20634;-67
2023/05/04 09:32:45;;;;;;;3.17;2.87;;;34.90;42.80;;;34.73;nan;100986.41;5011990;28;20717;-67
2023/05/04 09:35:13;;;;;;;3.07;2.87;;;35.00;42.90;;;35.07;nan;100991.28;5011743;28;20641;-67
2023/05/04 09:37:56;;;;;;;3.50;3.30;;;35.30;43.00;;;33.50;nan;100982.72;5005006;28;20668;-66
2023/05/04 09:40:39;;;;;;;2.43;2.33;;;33.90;43.30;;;32.45;nan;100990.06;5004488;28;20641;-67
2023/05/04 09:43:08;;;;;;;7.10;5.93;;;32.90;43.40;;;31.87;nan;100979.56;5003040;28;20715;-66
2023/05/04 09:45:43;;;;;;;5.90;5.30;;;32.10;43.80;;;32.63;nan;100973.63;5001041;28;20630;-65
2023/05/04 09:48:27;;;;;;;2.13;2.03;;;32.40;44.20;;;32.98;nan;100986.84;5006292;28;20872;-66
2023/05/04 09:50:59;;;;;;;2.10;2.00;;;33.10;43.50;;;31.93;nan;100962.38;5008329;28;21023;-66
2023/05/04 09:53:29;;;;;;;3.10;2.90;;;32.40;43.60;;;30.99;nan;100965.56;5010316;28;20644;-67
2023/05/04 09:56:08;;;;;;;3.47;2.00;;;31.20;44.40;;;30.77;nan;100966.38;5010376;28;21061;-71
2023/05/04 09:58:35;;;;;;;3.33;2.77;;;30.90;45.00;;;30.06;nan;100967.28;5007773;28;20670;-66
2023/05/04 10:01:04;;;;;;;2.17;1.90;;;30.30;45.90;;;29.77;nan;100963.53;5010240;28;20633;-67
2023/05/04 10:03:32;;;;;;;3.00;2.70;;;29.90;46.40;;;29.39;nan;100956.78;5003952;28;20719;-67
2023/05/04 10:06:03;;;;;;;2.63;2.53;;;29.40;46.60;;;30.16;nan;100964.84;5000382;28;20634;-66
2023/05/04 10:08:31;;;;;;;2.37;2.27;;;29.80;46.30;;;30.10;nan;100957.69;5008290;28;21294;-66
2023/05/04 10:10:58;;;;;;;2.30;2.20;;;29.70;46.60;;;30.53;nan;100944.81;5005552;28;20633;-68
2023/05/04 10:13:25;;;;;;;2.20;2.07;;;29.80;46.40;;;30.06;nan;100959.19;5012664;28;20630;-67
2023/05/04 10:16:22;;;;;;;2.47;2.27;;;29.70;46.70;;;29.60;nan;100956.31;5012496;28;20633;-67
2023/05/04 10:20:00;;;;;;;1.80;1.80;;;29.10;47.00;;;29.20;nan;100947.09;5012428;28;21225;-67
2023/05/04 10:22:47;;;;;;;9.93;6.37;;;28.60;47.60;;;28.24;nan;100938.59;4970668;28;21317;-66
2023/05/04 10:25:58;;;;;;;1.77;1.63;;;28.00;48.40;;;27.80;nan;100938.66;5008053;28;21038;-66
2023/05/04 10:28:43;;;;;;;1.90;1.80;;;27.30;49.90;;;27.40;nan;100927.31;5004869;28;21053;-70
2023/05/04 10:31:10;;;;;;;2.00;1.77;;;26.90;49.00;;;27.08;nan;100930.91;5012195;28;20633;-69